sensor_id;sensor_type;location;lat;lon;timestamp;pressure;altitude;pressure_sealevel;temperature;humidity
37648;BME280;23490;53.656;10.076;2023-05-22T00:02:19;98046.97;;;-145.95;93.95
37648;BME280;23490;53.656;10.076;2023-05-22T00:04:46;98057.31;;;-145.95;93.82
37648;BME280;23490;53.656;10.076;2023-05-22T00:07:12;98059.38;;;-145.95;93.80
37648;BME280;23490;53.656;10.076;2023-05-22T00:09:37;98026.34;;;-145.95;93.55
37648;BME280;23490;53.656;10.076;2023-05-22T00:12:02;98080.00;;;-145.95;93.71
37648;BME280;23490;53.656;10.076;2023-05-22T00:14:28;98026.34;;;-145.95;92.80
37648;BME280;23490;53.656;10.076;2023-05-22T00:16:53;98065.56;;;-145.95;93.33
37648;BME280;23490;53.656;10.076;2023-05-22T00:19:20;98049.03;;;-145.95;92.75
37648;BME280;23490;53.656;10.076;2023-05-22T00:21:47;98084.13;;;-145.95;92.58
37648;BME280;23490;53.656;10.076;2023-05-22T00:24:12;98071.75;;;-145.95;93.40
37648;BME280;23490;53.656;10.076;2023-05-22T00:26:37;98088.25;;;-145.95;93.77
37648;BME280;23490;53.656;10.076;2023-05-22T00:29:03;98067.63;;;-145.95;93.39
37648;BME280;23490;53.656;10.076;2023-05-22T00:31:30;98075.88;;;-145.95;93.88
37648;BME280;23490;53.656;10.076;2023-05-22T00:33:55;98100.66;;;-145.95;94.08
37648;BME280;23490;53.656;10.076;2023-05-22T00:36:21;98158.47;;;-145.95;93.25
37648;BME280;23490;53.656;10.076;2023-05-22T00:38:46;98108.91;;;-145.95;94.36
37648;BME280;23490;53.656;10.076;2023-05-22T00:41:12;98092.41;;;-145.95;93.04
37648;BME280;23490;53.656;10.076;2023-05-22T00:43:38;98051.09;;;-145.95;92.45
37648;BME280;23490;53.656;10.076;2023-05-22T00:46:03;98096.53;;;-145.95;93.08
37648;BME280;23490;53.656;10.076;2023-05-22T00:48:29;98084.13;;;-145.95;92.72
37648;BME280;23490;53.656;10.076;2023-05-22T00:50:56;98080.00;;;-145.95;92.45
37648;BME280;23490;53.656;10.076;2023-05-22T00:53:23;98129.56;;;-145.95;93.58
37648;BME280;23490;53.656;10.076;2023-05-22T00:55:50;98113.03;;;-145.95;93.70
37648;BME280;23490;53.656;10.076;2023-05-22T00:58:16;98133.69;;;-145.95;93.68
37648;BME280;23490;53.656;10.076;2023-05-22T01:00:42;98092.41;;;-145.95;92.81
37648;BME280;23490;53.656;10.076;2023-05-22T01:03:08;98104.78;;;-145.95;92.55
37648;BME280;23490;53.656;10.076;2023-05-22T01:05:38;98108.91;;;-145.95;92.82
37648;BME280;23490;53.656;10.076;2023-05-22T01:08:05;98096.53;;;-145.95;92.63
37648;BME280;23490;53.656;10.076;2023-05-22T01:10:32;98135.75;;;-145.95;93.28
37648;BME280;23490;53.656;10.076;2023-05-22T01:16:04;98150.19;;;-145.95;92.32
37648;BME280;23490;53.656;10.076;2023-05-22T01:19:09;98129.56;;;-145.95;93.46
37648;BME280;23490;53.656;10.076;2023-05-22T01:21:53;98162.59;;;-145.95;93.93
37648;BME280;23490;53.656;10.076;2023-05-22T01:24:47;98232.78;;;-145.95;94.83
37648;BME280;23490;53.656;10.076;2023-05-22T01:27:41;98166.72;;;-145.95;94.26
37648;BME280;23490;53.656;10.076;2023-05-22T01:30:38;98236.91;;;-145.95;93.79
37648;BME280;23490;53.656;10.076;2023-05-22T01:33:06;98106.84;;;-145.95;93.15
37648;BME280;23490;53.656;10.076;2023-05-22T01:35:33;98154.31;;;-145.95;94.23
37648;BME280;23490;53.656;10.076;2023-05-22T01:38:01;98203.88;;;-145.95;95.35
37648;BME280;23490;53.656;10.076;2023-05-22T01:40:27;98208.00;;;-145.95;95.57
37648;BME280;23490;53.656;10.076;2023-05-22T01:42:53;98189.44;;;-145.95;95.33
37648;BME280;23490;53.656;10.076;2023-05-22T01:45:20;98174.97;;;-145.95;95.29
37648;BME280;23490;53.656;10.076;2023-05-22T01:47:45;98203.88;;;-145.95;94.64
37648;BME280;23490;53.656;10.076;2023-05-22T01:50:11;98222.47;;;-145.95;95.69
37648;BME280;23490;53.656;10.076;2023-05-22T01:55:13;98224.53;;;-145.95;94.97
37648;BME280;23490;53.656;10.076;2023-05-22T01:57:54;98261.69;;;-145.95;94.88
37648;BME280;23490;53.656;10.076;2023-05-22T02:00:21;98241.03;;;-145.95;94.53
37648;BME280;23490;53.656;10.076;2023-05-22T02:02:57;98249.28;;;-145.95;95.53
37648;BME280;23490;53.656;10.076;2023-05-22T02:05:26;98232.78;;;-145.95;95.83
37648;BME280;23490;53.656;10.076;2023-05-22T02:07:55;98208.00;;;-145.95;95.78
37648;BME280;23490;53.656;10.076;2023-05-22T02:10:23;98236.91;;;-145.95;95.65
37648;BME280;23490;53.656;10.076;2023-05-22T02:12:50;98241.03;;;-145.95;95.91
37648;BME280;23490;53.656;10.076;2023-05-22T02:15:15;98212.13;;;-145.95;94.83
37648;BME280;23490;53.656;10.076;2023-05-22T02:17:41;98212.13;;;-145.95;95.22
37648;BME280;23490;53.656;10.076;2023-05-22T02:20:11;98210.06;;;-145.95;95.53
37648;BME280;23490;53.656;10.076;2023-05-22T02:22:43;98236.91;;;-145.95;95.08
37648;BME280;23490;53.656;10.076;2023-05-22T02:25:12;98309.16;;;-145.95;96.26
37648;BME280;23490;53.656;10.076;2023-05-22T02:27:42;98282.31;;;-145.95;97.82
37648;BME280;23490;53.656;10.076;2023-05-22T02:30:09;98253.44;;;-145.95;96.94
37648;BME280;23490;53.656;10.076;2023-05-22T02:32:35;98232.78;;;-145.95;97.07
37648;BME280;23490;53.656;10.076;2023-05-22T02:35:00;98278.19;;;-145.95;97.04
37648;BME280;23490;53.656;10.076;2023-05-22T02:37:26;98232.78;;;-145.95;97.59
37648;BME280;23490;53.656;10.076;2023-05-22T02:39:51;98265.81;;;-145.95;96.59
37648;BME280;23490;53.656;10.076;2023-05-22T02:42:16;98278.19;;;-145.95;97.48
37648;BME280;23490;53.656;10.076;2023-05-22T02:44:42;98282.31;;;-145.95;97.26
37648;BME280;23490;53.656;10.076;2023-05-22T02:47:07;98245.16;;;-145.95;95.81
37648;BME280;23490;53.656;10.076;2023-05-22T02:49:33;98331.88;;;-145.95;97.01
37648;BME280;23490;53.656;10.076;2023-05-22T02:51:58;98272.00;;;-145.95;96.90
37648;BME280;23490;53.656;10.076;2023-05-22T02:54:23;98259.63;;;-145.95;96.01
37648;BME280;23490;53.656;10.076;2023-05-22T02:56:48;98298.84;;;-145.95;96.94
37648;BME280;23490;53.656;10.076;2023-05-22T02:59:14;98261.69;;;-145.95;97.87
37648;BME280;23490;53.656;10.076;2023-05-22T03:01:40;98263.75;;;-145.95;97.22
37648;BME280;23490;53.656;10.076;2023-05-22T03:04:05;98313.28;;;-145.95;96.83
37648;BME280;23490;53.656;10.076;2023-05-22T03:06:31;98269.94;;;-145.95;96.45
37648;BME280;23490;53.656;10.076;2023-05-22T03:08:57;98280.25;;;-145.95;96.70
37648;BME280;23490;53.656;10.076;2023-05-22T03:11:22;98261.69;;;-145.95;96.54
37648;BME280;23490;53.656;10.076;2023-05-22T03:13:47;98290.59;;;-145.95;97.40
37648;BME280;23490;53.656;10.076;2023-05-22T03:16:13;98315.38;;;-145.95;97.37
37648;BME280;23490;53.656;10.076;2023-05-22T03:18:38;98305.03;;;-145.95;96.21
37648;BME280;23490;53.656;10.076;2023-05-22T03:21:03;98323.63;;;-145.95;96.73
37648;BME280;23490;53.656;10.076;2023-05-22T03:23:30;98315.38;;;-145.95;97.39
37648;BME280;23490;53.656;10.076;2023-05-22T03:25:55;98280.25;;;-145.95;96.64
37648;BME280;23490;53.656;10.076;2023-05-22T03:28:21;98253.44;;;-145.95;95.61
37648;BME280;23490;53.656;10.076;2023-05-22T03:30:49;98259.63;;;-145.95;95.67
37648;BME280;23490;53.656;10.076;2023-05-22T03:33:14;98276.13;;;-145.95;95.15
37648;BME280;23490;53.656;10.076;2023-05-22T03:35:41;98259.63;;;-145.95;94.33
37648;BME280;23490;53.656;10.076;2023-05-22T03:38:08;98245.16;;;-145.95;94.02
37648;BME280;23490;53.656;10.076;2023-05-22T03:40:34;98253.44;;;-145.95;95.04
37648;BME280;23490;53.656;10.076;2023-05-22T03:42:59;98278.19;;;-145.95;94.27
37648;BME280;23490;53.656;10.076;2023-05-22T03:45:25;98236.91;;;-145.95;94.50
37648;BME280;23490;53.656;10.076;2023-05-22T03:47:50;98290.59;;;-145.95;94.68
37648;BME280;23490;53.656;10.076;2023-05-22T03:50:15;98282.31;;;-145.95;94.96
37648;BME280;23490;53.656;10.076;2023-05-22T03:52:41;98286.47;;;-145.95;95.31
37648;BME280;23490;53.656;10.076;2023-05-22T03:55:07;98294.72;;;-145.95;94.03
37648;BME280;23490;53.656;10.076;2023-05-22T03:57:32;98265.81;;;-145.95;94.03
37648;BME280;23490;53.656;10.076;2023-05-22T03:59:58;98315.38;;;-145.95;93.91
37648;BME280;23490;53.656;10.076;2023-05-22T04:02:30;98249.28;;;-145.95;94.59
37648;BME280;23490;53.656;10.076;2023-05-22T04:04:55;98261.69;;;-145.95;94.64
37648;BME280;23490;53.656;10.076;2023-05-22T04:07:21;98274.06;;;-145.95;93.28
37648;BME280;23490;53.656;10.076;2023-05-22T04:09:46;98269.94;;;-145.95;93.86
37648;BME280;23490;53.656;10.076;2023-05-22T04:12:11;98236.91;;;-145.95;93.34
37648;BME280;23490;53.656;10.076;2023-05-22T04:14:37;98224.53;;;-145.95;93.91
37648;BME280;23490;53.656;10.076;2023-05-22T04:17:02;98245.16;;;-145.95;93.30
37648;BME280;23490;53.656;10.076;2023-05-22T04:19:28;98257.56;;;-145.95;92.09
37648;BME280;23490;53.656;10.076;2023-05-22T04:21:55;98247.22;;;-145.95;92.01
37648;BME280;23490;53.656;10.076;2023-05-22T04:24:21;98234.84;;;-145.95;93.11
37648;BME280;23490;53.656;10.076;2023-05-22T04:26:47;98232.78;;;-145.95;92.99
37648;BME280;23490;53.656;10.076;2023-05-22T04:29:13;98201.81;;;-145.95;92.37
37648;BME280;23490;53.656;10.076;2023-05-22T04:31:38;98224.53;;;-145.95;91.70
37648;BME280;23490;53.656;10.076;2023-05-22T04:34:05;98212.13;;;-145.95;91.32
37648;BME280;23490;53.656;10.076;2023-05-22T04:36:30;98191.50;;;-145.95;91.51
37648;BME280;23490;53.656;10.076;2023-05-22T04:38:56;98193.56;;;-145.95;91.43
37648;BME280;23490;53.656;10.076;2023-05-22T04:41:21;98208.00;;;-145.95;91.42
37648;BME280;23490;53.656;10.076;2023-05-22T04:43:51;98179.09;;;-145.95;90.72
37648;BME280;23490;53.656;10.076;2023-05-22T04:46:18;98226.59;;;-145.95;90.46
37648;BME280;23490;53.656;10.076;2023-05-22T04:48:43;98137.81;;;-145.95;90.66
37648;BME280;23490;53.656;10.076;2023-05-22T04:51:09;98193.56;;;-145.95;89.36
37648;BME280;23490;53.656;10.076;2023-05-22T04:53:34;98102.72;;;-145.95;88.46
37648;BME280;23490;53.656;10.076;2023-05-22T04:56:01;98174.97;;;-145.95;88.19
37648;BME280;23490;53.656;10.076;2023-05-22T04:58:26;98113.03;;;-145.95;87.44
37648;BME280;23490;53.656;10.076;2023-05-22T05:00:52;98071.75;;;-145.95;86.88
37648;BME280;23490;53.656;10.076;2023-05-22T05:03:19;98082.06;;;-145.95;85.62
37648;BME280;23490;53.656;10.076;2023-05-22T05:05:45;98051.09;;;-145.95;83.69
37648;BME280;23490;53.656;10.076;2023-05-22T05:08:11;98044.91;;;-145.95;82.89
37648;BME280;23490;53.656;10.076;2023-05-22T05:10:37;98046.97;;;-145.95;81.78
37648;BME280;23490;53.656;10.076;2023-05-22T05:13:02;98036.66;;;-145.95;84.39
37648;BME280;23490;53.656;10.076;2023-05-22T05:15:27;98009.81;;;-145.95;82.46
37648;BME280;23490;53.656;10.076;2023-05-22T05:17:55;97985.03;;;-145.95;81.30
37648;BME280;23490;53.656;10.076;2023-05-22T05:20:21;98013.94;;;-145.95;80.28
37648;BME280;23490;53.656;10.076;2023-05-22T05:22:46;98005.69;;;-145.95;79.60
37648;BME280;23490;53.656;10.076;2023-05-22T05:25:12;97960.28;;;-145.95;80.23
37648;BME280;23490;53.656;10.076;2023-05-22T05:27:37;97997.44;;;-145.95;78.54
37648;BME280;23490;53.656;10.076;2023-05-22T05:30:03;97972.66;;;-145.95;79.65
37648;BME280;23490;53.656;10.076;2023-05-22T05:32:29;97964.41;;;-145.95;77.76
37648;BME280;23490;53.656;10.076;2023-05-22T05:34:54;97941.69;;;-145.95;77.04
37648;BME280;23490;53.656;10.076;2023-05-22T05:37:21;97939.63;;;-145.95;77.28
37648;BME280;23490;53.656;10.076;2023-05-22T05:39:46;97919.00;;;-145.95;76.48
37648;BME280;23490;53.656;10.076;2023-05-22T05:42:11;97894.22;;;-145.95;76.48
37648;BME280;23490;53.656;10.076;2023-05-22T05:44:37;97894.22;;;-145.95;76.10
37648;BME280;23490;53.656;10.076;2023-05-22T05:47:02;97881.84;;;-145.95;75.00
37648;BME280;23490;53.656;10.076;2023-05-22T05:49:27;97865.31;;;-145.95;75.21
37648;BME280;23490;53.656;10.076;2023-05-22T05:51:53;97894.22;;;-145.95;76.59
37648;BME280;23490;53.656;10.076;2023-05-22T05:54:19;97828.16;;;-145.95;75.16
37648;BME280;23490;53.656;10.076;2023-05-22T05:56:47;97807.53;;;-145.95;73.72
37648;BME280;23490;53.656;10.076;2023-05-22T05:59:13;97819.91;;;-145.95;71.89
37648;BME280;23490;53.656;10.076;2023-05-22T06:01:42;97770.34;;;-145.95;71.16
37648;BME280;23490;53.656;10.076;2023-05-22T06:04:08;97712.56;;;-145.95;69.54
37648;BME280;23490;53.656;10.076;2023-05-22T06:06:33;97696.06;;;-145.95;66.67
37648;BME280;23490;53.656;10.076;2023-05-22T06:09:03;97667.16;;;-145.95;65.47
37648;BME280;23490;53.656;10.076;2023-05-22T06:11:31;97615.53;;;-145.95;66.26
37648;BME280;23490;53.656;10.076;2023-05-22T06:13:56;97617.59;;;-145.95;62.93
37648;BME280;23490;53.656;10.076;2023-05-22T06:16:24;97617.59;;;-145.95;62.33
37648;BME280;23490;53.656;10.076;2023-05-22T06:18:49;97673.34;;;-145.95;63.08
37648;BME280;23490;53.656;10.076;2023-05-22T06:21:17;97605.22;;;-145.95;62.10
37648;BME280;23490;53.656;10.076;2023-05-22T06:23:45;97646.50;;;-145.95;62.96
37648;BME280;23490;53.656;10.076;2023-05-22T06:26:11;97592.84;;;-145.95;61.47
37648;BME280;23490;53.656;10.076;2023-05-22T06:28:38;97609.34;;;-145.95;61.69
37648;BME280;23490;53.656;10.076;2023-05-22T06:31:03;97592.84;;;-145.95;60.81
37648;BME280;23490;53.656;10.076;2023-05-22T06:33:28;97588.72;;;-145.95;61.19
37648;BME280;23490;53.656;10.076;2023-05-22T06:35:54;97588.72;;;-145.95;59.82
37648;BME280;23490;53.656;10.076;2023-05-22T06:38:19;97524.72;;;-145.95;60.33
37648;BME280;23490;53.656;10.076;2023-05-22T06:40:44;97547.44;;;-145.95;60.08
37648;BME280;23490;53.656;10.076;2023-05-22T06:43:10;97557.75;;;-145.95;59.24
37648;BME280;23490;53.656;10.076;2023-05-22T06:45:36;97489.63;;;-145.95;60.22
37648;BME280;23490;53.656;10.076;2023-05-22T06:48:03;97506.16;;;-145.95;58.72
37648;BME280;23490;53.656;10.076;2023-05-22T06:50:29;97456.63;;;-145.95;58.27
37648;BME280;23490;53.656;10.076;2023-05-22T06:52:55;97537.09;;;-145.95;57.54
37648;BME280;23490;53.656;10.076;2023-05-22T06:55:20;97456.63;;;-145.95;57.30
37648;BME280;23490;53.656;10.076;2023-05-22T06:57:46;97460.75;;;-145.95;57.39
37648;BME280;23490;53.656;10.076;2023-05-22T07:00:11;97431.84;;;-145.95;57.44
37648;BME280;23490;53.656;10.076;2023-05-22T07:02:37;97477.25;;;-145.95;56.93
37648;BME280;23490;53.656;10.076;2023-05-22T07:05:03;97448.34;;;-145.95;56.10
37648;BME280;23490;53.656;10.076;2023-05-22T07:07:29;97440.09;;;-145.95;56.21
37648;BME280;23490;53.656;10.076;2023-05-22T07:09:55;97431.84;;;-145.95;56.38
37648;BME280;23490;53.656;10.076;2023-05-22T07:12:20;97402.94;;;-145.95;55.68
37648;BME280;23490;53.656;10.076;2023-05-22T07:14:50;97388.50;;;-145.95;56.04
37648;BME280;23490;53.656;10.076;2023-05-22T07:17:15;97328.66;;;-145.95;56.67
37648;BME280;23490;53.656;10.076;2023-05-22T07:19:41;97308.00;;;-145.95;56.16
37648;BME280;23490;53.656;10.076;2023-05-22T07:22:06;97312.13;;;-145.95;54.12
37648;BME280;23490;53.656;10.076;2023-05-22T07:24:31;97279.09;;;-145.95;53.79
37648;BME280;23490;53.656;10.076;2023-05-22T07:26:57;97258.47;;;-145.95;53.23
37648;BME280;23490;53.656;10.076;2023-05-22T07:29:22;97204.81;;;-145.95;52.74
37648;BME280;23490;53.656;10.076;2023-05-22T07:31:47;97289.44;;;-145.95;54.56
37648;BME280;23490;53.656;10.076;2023-05-22T07:34:13;97163.53;;;-145.95;51.41
37648;BME280;23490;53.656;10.076;2023-05-22T07:36:38;97144.94;;;-145.95;51.67
37648;BME280;23490;53.656;10.076;2023-05-22T07:39:04;97089.22;;;-145.95;51.40
37648;BME280;23490;53.656;10.076;2023-05-22T07:41:29;97142.88;;;-145.95;50.68
37648;BME280;23490;53.656;10.076;2023-05-22T07:43:55;97043.81;;;-145.95;49.32
37648;BME280;23490;53.656;10.076;2023-05-22T07:46:20;96990.16;;;-145.95;49.78
37648;BME280;23490;53.656;10.076;2023-05-22T07:48:45;97105.75;;;-145.95;49.03
37648;BME280;23490;53.656;10.076;2023-05-22T07:51:11;96992.22;;;-145.95;49.88
37648;BME280;23490;53.656;10.076;2023-05-22T07:53:37;96961.28;;;-145.95;49.27
37648;BME280;23490;53.656;10.076;2023-05-22T07:56:04;96940.63;;;-145.95;47.86
37648;BME280;23490;53.656;10.076;2023-05-22T07:58:29;96950.97;;;-145.95;47.60
37648;BME280;23490;53.656;10.076;2023-05-22T08:00:55;96858.09;;;-145.95;48.59
37648;BME280;23490;53.656;10.076;2023-05-22T08:03:20;96754.91;;;-145.95;47.80
37648;BME280;23490;53.656;10.076;2023-05-22T08:05:45;96742.53;;;-145.95;46.34
37648;BME280;23490;53.656;10.076;2023-05-22T08:08:11;96734.28;;;-145.95;45.95
37648;BME280;23490;53.656;10.076;2023-05-22T08:10:37;96709.50;;;-145.95;45.55
37648;BME280;23490;53.656;10.076;2023-05-22T08:13:02;96651.72;;;-145.95;44.45
37648;BME280;23490;53.656;10.076;2023-05-22T08:15:31;96606.31;;;-145.95;44.21
37648;BME280;23490;53.656;10.076;2023-05-22T08:17:57;96573.31;;;-145.95;43.68
37648;BME280;23490;53.656;10.076;2023-05-22T08:20:22;96494.91;;;-145.95;43.58
37648;BME280;23490;53.656;10.076;2023-05-22T08:22:47;96511.41;;;-145.95;43.13
37648;BME280;23490;53.656;10.076;2023-05-22T08:25:13;96523.78;;;-145.95;44.20
37648;BME280;23490;53.656;10.076;2023-05-22T08:27:38;96779.66;;;-145.95;42.93
37648;BME280;23490;53.656;10.076;2023-05-22T08:30:05;96750.78;;;-145.95;43.76
37648;BME280;23490;53.656;10.076;2023-05-22T08:32:30;96759.03;;;-145.95;44.19
37648;BME280;23490;53.656;10.076;2023-05-22T08:34:55;96693.00;;;-145.95;44.31
37648;BME280;23490;53.656;10.076;2023-05-22T08:37:21;96622.84;;;-145.95;44.34
37648;BME280;23490;53.656;10.076;2023-05-22T08:39:46;96560.94;;;-145.95;43.23
37648;BME280;23490;53.656;10.076;2023-05-22T08:42:12;96321.56;;;-145.95;42.46
37648;BME280;23490;53.656;10.076;2023-05-22T08:44:38;96261.75;;;-145.95;40.35
37648;BME280;23490;53.656;10.076;2023-05-22T08:47:03;96305.06;;;-145.95;40.35
37648;BME280;23490;53.656;10.076;2023-05-22T08:49:31;96255.53;;;-145.95;41.00
37648;BME280;23490;53.656;10.076;2023-05-22T08:52:02;96348.41;;;-145.95;39.37
37648;BME280;23490;53.656;10.076;2023-05-22T08:54:30;96303.00;;;-145.95;39.22
37648;BME280;23490;53.656;10.076;2023-05-22T08:56:57;96230.78;;;-145.95;39.49
37648;BME280;23490;53.656;10.076;2023-05-22T08:59:24;96010.03;;;-145.95;38.94
37648;BME280;23490;53.656;10.076;2023-05-22T09:01:50;96193.66;;;-145.95;39.08
37648;BME280;23490;53.656;10.076;2023-05-22T09:04:16;96162.69;;;-145.95;39.16
37648;BME280;23490;53.656;10.076;2023-05-22T09:06:46;96146.19;;;-145.95;38.45
37648;BME280;23490;53.656;10.076;2023-05-22T09:09:14;96078.09;;;-145.95;38.29
37648;BME280;23490;53.656;10.076;2023-05-22T09:11:40;96061.59;;;-145.95;38.72
37648;BME280;23490;53.656;10.076;2023-05-22T09:14:09;95966.69;;;-145.95;38.56
37648;BME280;23490;53.656;10.076;2023-05-22T09:16:48;95946.06;;;-145.95;37.63
37648;BME280;23490;53.656;10.076;2023-05-22T09:19:14;95966.69;;;-145.95;38.27
37648;BME280;23490;53.656;10.076;2023-05-22T09:21:40;95995.56;;;-145.95;38.21
37648;BME280;23490;53.656;10.076;2023-05-22T09:24:09;95884.16;;;-145.95;38.35
37648;BME280;23490;53.656;10.076;2023-05-22T09:26:36;95875.91;;;-145.95;38.36
37648;BME280;23490;53.656;10.076;2023-05-22T09:29:03;95933.69;;;-145.95;39.53
37648;BME280;23490;53.656;10.076;2023-05-22T09:31:29;95661.34;;;-145.95;39.07
37648;BME280;23490;53.656;10.076;2023-05-22T09:33:56;95772.75;;;-145.95;37.87
37648;BME280;23490;53.656;10.076;2023-05-22T09:36:29;95677.84;;;-145.95;37.78
37648;BME280;23490;53.656;10.076;2023-05-22T09:38:55;95789.25;;;-145.95;38.33
37648;BME280;23490;53.656;10.076;2023-05-22T09:41:22;95822.28;;;-145.95;37.37
37648;BME280;23490;53.656;10.076;2023-05-22T09:43:50;95776.88;;;-145.95;36.48
37648;BME280;23490;53.656;10.076;2023-05-22T09:46:16;95809.91;;;-145.95;36.79
37648;BME280;23490;53.656;10.076;2023-05-22T09:48:41;95884.16;;;-145.95;37.13
37648;BME280;23490;53.656;10.076;2023-05-22T09:51:07;95710.88;;;-145.95;36.40
37648;BME280;23490;53.656;10.076;2023-05-22T09:53:34;95694.38;;;-145.95;36.00
37648;BME280;23490;53.656;10.076;2023-05-22T09:56:05;95632.47;;;-145.95;34.86
37648;BME280;23490;53.656;10.076;2023-05-22T09:58:34;95648.97;;;-145.95;35.29
37648;BME280;23490;53.656;10.076;2023-05-22T10:01:02;95494.25;;;-145.95;36.42
37648;BME280;23490;53.656;10.076;2023-05-22T10:03:30;95615.97;;;-145.95;35.60
37648;BME280;23490;53.656;10.076;2023-05-22T10:05:57;95362.25;;;-145.95;34.42
37648;BME280;23490;53.656;10.076;2023-05-22T10:08:34;95405.56;;;-145.95;34.66
37648;BME280;23490;53.656;10.076;2023-05-22T10:11:01;95232.28;;;-145.95;34.42
37648;BME280;23490;53.656;10.076;2023-05-22T10:13:27;95415.88;;;-145.95;33.91
37648;BME280;23490;53.656;10.076;2023-05-22T10:15:54;95615.97;;;-145.95;34.42
37648;BME280;23490;53.656;10.076;2023-05-22T10:18:21;95677.84;;;-145.95;35.14
37648;BME280;23490;53.656;10.076;2023-05-22T10:20:47;95504.56;;;-145.95;34.14
37648;BME280;23490;53.656;10.076;2023-05-22T10:23:14;95556.16;;;-145.95;34.95
37648;BME280;23490;53.656;10.076;2023-05-22T10:25:42;95613.91;;;-145.95;34.60
37648;BME280;23490;53.656;10.076;2023-05-22T10:28:09;95498.38;;;-145.95;34.77
37648;BME280;23490;53.656;10.076;2023-05-22T10:33:42;95318.91;;;-145.95;33.88
37648;BME280;23490;53.656;10.076;2023-05-22T10:41:24;95473.63;;;-145.95;33.97
37648;BME280;23490;53.656;10.076;2023-05-22T10:43:50;95516.94;;;-145.95;34.76
37648;BME280;23490;53.656;10.076;2023-05-22T10:46:17;95521.06;;;-145.95;33.01
37648;BME280;23490;53.656;10.076;2023-05-22T10:48:46;95640.72;;;-145.95;33.88
37648;BME280;23490;53.656;10.076;2023-05-22T10:51:14;95694.38;;;-145.95;33.64
37648;BME280;23490;53.656;10.076;2023-05-22T10:53:41;95690.25;;;-145.95;33.87
37648;BME280;23490;53.656;10.076;2023-05-22T10:56:10;95417.94;;;-145.95;33.11
37648;BME280;23490;53.656;10.076;2023-05-22T10:58:35;95620.09;;;-145.95;33.50
37648;BME280;23490;53.656;10.076;2023-05-22T11:01:14;95556.16;;;-145.95;33.33
37648;BME280;23490;53.656;10.076;2023-05-22T11:06:48;95702.63;;;-145.95;33.38
37648;BME280;23490;53.656;10.076;2023-05-22T11:09:30;95624.22;;;-145.95;32.71
37648;BME280;23490;53.656;10.076;2023-05-22T11:12:24;95599.47;;;-145.95;33.04
37648;BME280;23490;53.656;10.076;2023-05-22T11:15:02;95826.41;;;-145.95;33.32
37648;BME280;23490;53.656;10.076;2023-05-22T11:17:31;95801.66;;;-145.95;33.67
37648;BME280;23490;53.656;10.076;2023-05-22T11:20:17;95842.91;;;-145.95;33.94
37648;BME280;23490;53.656;10.076;2023-05-22T11:22:48;95830.53;;;-145.95;33.60
37648;BME280;23490;53.656;10.076;2023-05-22T11:25:18;95875.91;;;-145.95;33.77
37648;BME280;23490;53.656;10.076;2023-05-22T11:27:45;95974.94;;;-145.95;33.99
37648;BME280;23490;53.656;10.076;2023-05-22T11:30:12;95966.69;;;-145.95;33.88
37648;BME280;23490;53.656;10.076;2023-05-22T11:32:39;95896.53;;;-145.95;33.13
37648;BME280;23490;53.656;10.076;2023-05-22T11:35:05;95760.38;;;-145.95;34.26
37648;BME280;23490;53.656;10.076;2023-05-22T11:37:38;95706.75;;;-145.95;32.61
37648;BME280;23490;53.656;10.076;2023-05-22T11:40:04;95500.44;;;-145.95;32.55
37648;BME280;23490;53.656;10.076;2023-05-22T11:42:30;95549.97;;;-145.95;32.71
37648;BME280;23490;53.656;10.076;2023-05-22T11:44:56;95401.44;;;-145.95;32.01
37648;BME280;23490;53.656;10.076;2023-05-22T11:47:21;95372.56;;;-145.95;32.41
37648;BME280;23490;53.656;10.076;2023-05-22T11:49:47;95314.78;;;-145.95;32.13
37648;BME280;23490;53.656;10.076;2023-05-22T11:52:15;95384.94;;;-145.95;33.05
37648;BME280;23490;53.656;10.076;2023-05-22T11:54:44;95370.50;;;-145.95;31.88
37648;BME280;23490;53.656;10.076;2023-05-22T11:57:10;95554.09;;;-145.95;32.44
37648;BME280;23490;53.656;10.076;2023-05-22T11:59:35;95438.56;;;-145.95;31.76
37648;BME280;23490;53.656;10.076;2023-05-22T12:02:01;95529.34;;;-145.95;33.40
37648;BME280;23490;53.656;10.076;2023-05-22T12:04:26;95455.06;;;-145.95;32.36
37648;BME280;23490;53.656;10.076;2023-05-22T12:06:53;95582.97;;;-145.95;33.08
37648;BME280;23490;53.656;10.076;2023-05-22T12:09:19;95331.28;;;-145.95;32.52
37648;BME280;23490;53.656;10.076;2023-05-22T12:11:47;95009.50;;;-145.95;32.29
37648;BME280;23490;53.656;10.076;2023-05-22T12:14:12;95112.66;;;-145.95;32.36
37648;BME280;23490;53.656;10.076;2023-05-22T12:16:38;95085.84;;;-145.95;32.07
37648;BME280;23490;53.656;10.076;2023-05-22T12:19:07;95261.16;;;-145.95;32.61
37648;BME280;23490;53.656;10.076;2023-05-22T12:21:33;95372.56;;;-145.95;32.74
37648;BME280;23490;53.656;10.076;2023-05-22T12:24:04;95339.53;;;-145.95;32.65
37648;BME280;23490;53.656;10.076;2023-05-22T12:26:30;95467.44;;;-145.95;32.92
37648;BME280;23490;53.656;10.076;2023-05-22T12:28:57;95496.31;;;-145.95;32.56
37648;BME280;23490;53.656;10.076;2023-05-22T12:31:23;95644.84;;;-145.95;33.03
37648;BME280;23490;53.656;10.076;2023-05-22T12:33:56;95475.69;;;-145.95;32.90
37648;BME280;23490;53.656;10.076;2023-05-22T12:36:41;95587.09;;;-145.95;33.31
37648;BME280;23490;53.656;10.076;2023-05-22T12:39:07;95599.47;;;-145.95;32.76
37648;BME280;23490;53.656;10.076;2023-05-22T12:41:36;95620.09;;;-145.95;33.14
37648;BME280;23490;53.656;10.076;2023-05-22T12:44:02;95636.59;;;-145.95;33.49
37648;BME280;23490;53.656;10.076;2023-05-22T12:46:32;95620.09;;;-145.95;33.27
37648;BME280;23490;53.656;10.076;2023-05-22T12:48:58;95613.91;;;-145.95;33.14